sensor_id;sensor_type;location;lat;lon;timestamp;P1;durP1;ratioP1;P2;durP2;ratioP2
15151;SDS011;7676;50.900;6.234;2023-08-21T00:11:56;2.80;;;1.87;;
15151;SDS011;7676;50.900;6.234;2023-08-21T00:26:58;3.10;;;1.77;;
15151;SDS011;7676;50.900;6.234;2023-08-21T00:42:02;3.03;;;1.93;;
15151;SDS011;7676;50.900;6.234;2023-08-21T00:57:05;2.43;;;1.67;;
15151;SDS011;7676;50.900;6.234;2023-08-21T01:27:48;5.03;;;1.63;;
15151;SDS011;7676;50.900;6.234;2023-08-21T01:42:53;4.90;;;2.03;;
15151;SDS011;7676;50.900;6.234;2023-08-21T01:57:56;3.47;;;2.60;;
15151;SDS011;7676;50.900;6.234;2023-08-21T02:12:59;5.23;;;3.17;;
15151;SDS011;7676;50.900;6.234;2023-08-21T02:28:01;5.73;;;3.30;;
15151;SDS011;7676;50.900;6.234;2023-08-21T02:43:06;6.27;;;3.20;;
15151;SDS011;7676;50.900;6.234;2023-08-21T02:58:09;6.03;;;3.23;;
15151;SDS011;7676;50.900;6.234;2023-08-21T03:13:13;5.27;;;2.73;;
15151;SDS011;7676;50.900;6.234;2023-08-21T03:28:20;5.87;;;3.20;;
15151;SDS011;7676;50.900;6.234;2023-08-21T03:43:24;5.43;;;3.20;;
15151;SDS011;7676;50.900;6.234;2023-08-21T03:58:27;5.73;;;2.87;;
15151;SDS011;7676;50.900;6.234;2023-08-21T04:13:32;6.57;;;3.17;;
15151;SDS011;7676;50.900;6.234;2023-08-21T04:28:35;4.73;;;2.63;;
15151;SDS011;7676;50.900;6.234;2023-08-21T04:43:38;5.57;;;3.20;;
15151;SDS011;7676;50.900;6.234;2023-08-21T04:58:43;5.63;;;3.07;;
15151;SDS011;7676;50.900;6.234;2023-08-21T05:13:46;5.77;;;3.23;;
15151;SDS011;7676;50.900;6.234;2023-08-21T05:28:52;5.00;;;2.73;;
15151;SDS011;7676;50.900;6.234;2023-08-21T05:43:55;4.87;;;2.83;;
15151;SDS011;7676;50.900;6.234;2023-08-21T05:58:59;4.93;;;2.97;;
15151;SDS011;7676;50.900;6.234;2023-08-21T06:14:02;6.37;;;3.27;;
15151;SDS011;7676;50.900;6.234;2023-08-21T06:29:04;4.22;;;2.72;;
15151;SDS011;7676;50.900;6.234;2023-08-21T06:44:08;4.28;;;2.55;;
15151;SDS011;7676;50.900;6.234;2023-08-21T06:59:11;10.03;;;3.13;;
15151;SDS011;7676;50.900;6.234;2023-08-21T07:14:14;7.13;;;3.95;;
15151;SDS011;7676;50.900;6.234;2023-08-21T07:29:17;6.13;;;3.57;;
15151;SDS011;7676;50.900;6.234;2023-08-21T07:44:19;5.07;;;3.37;;
15151;SDS011;7676;50.900;6.234;2023-08-21T07:59:22;6.03;;;3.43;;
15151;SDS011;7676;50.900;6.234;2023-08-21T08:14:24;7.93;;;3.57;;
15151;SDS011;7676;50.900;6.234;2023-08-21T08:29:27;5.93;;;3.53;;
15151;SDS011;7676;50.900;6.234;2023-08-21T08:44:30;4.43;;;3.60;;
15151;SDS011;7676;50.900;6.234;2023-08-21T08:59:33;4.10;;;2.93;;
15151;SDS011;7676;50.900;6.234;2023-08-21T09:14:36;5.70;;;3.70;;
15151;SDS011;7676;50.900;6.234;2023-08-21T09:29:41;6.97;;;4.40;;
15151;SDS011;7676;50.900;6.234;2023-08-21T09:44:43;5.97;;;3.73;;
15151;SDS011;7676;50.900;6.234;2023-08-21T09:59:46;7.07;;;4.30;;
15151;SDS011;7676;50.900;6.234;2023-08-21T10:14:52;5.77;;;4.10;;
15151;SDS011;7676;50.900;6.234;2023-08-21T10:29:58;5.55;;;3.53;;
15151;SDS011;7676;50.900;6.234;2023-08-21T10:45:02;4.20;;;3.10;;
15151;SDS011;7676;50.900;6.234;2023-08-21T11:00:13;6.32;;;2.80;;
15151;SDS011;7676;50.900;6.234;2023-08-21T11:15:18;3.95;;;2.30;;
15151;SDS011;7676;50.900;6.234;2023-08-21T11:30:25;2.05;;;1.50;;
15151;SDS011;7676;50.900;6.234;2023-08-21T11:45:27;3.35;;;1.83;;
15151;SDS011;7676;50.900;6.234;2023-08-21T12:00:30;2.47;;;1.60;;
15151;SDS011;7676;50.900;6.234;2023-08-21T12:15:33;5.28;;;1.73;;
15151;SDS011;7676;50.900;6.234;2023-08-21T12:30:36;2.75;;;1.60;;
15151;SDS011;7676;50.900;6.234;2023-08-21T12:45:39;3.50;;;1.60;;
15151;SDS011;7676;50.900;6.234;2023-08-21T13:00:42;3.05;;;1.30;;
15151;SDS011;7676;50.900;6.234;2023-08-21T13:15:45;5.47;;;2.08;;
15151;SDS011;7676;50.900;6.234;2023-08-21T13:30:50;3.15;;;1.48;;
15151;SDS011;7676;50.900;6.234;2023-08-21T13:45:53;3.70;;;1.52;;
15151;SDS011;7676;50.900;6.234;2023-08-21T14:00:56;2.40;;;1.45;;
15151;SDS011;7676;50.900;6.234;2023-08-21T14:16:00;2.00;;;1.30;;
15151;SDS011;7676;50.900;6.234;2023-08-21T14:31:03;3.78;;;1.70;;
15151;SDS011;7676;50.900;6.234;2023-08-21T14:46:06;2.22;;;1.55;;
15151;SDS011;7676;50.900;6.234;2023-08-21T15:01:10;3.38;;;1.65;;
15151;SDS011;7676;50.900;6.234;2023-08-21T15:16:13;3.90;;;1.60;;
15151;SDS011;7676;50.900;6.234;2023-08-21T15:31:16;3.22;;;1.60;;
15151;SDS011;7676;50.900;6.234;2023-08-21T15:46:19;2.50;;;1.90;;
15151;SDS011;7676;50.900;6.234;2023-08-21T16:01:22;3.70;;;1.70;;
15151;SDS011;7676;50.900;6.234;2023-08-21T16:16:25;2.85;;;1.33;;
15151;SDS011;7676;50.900;6.234;2023-08-21T16:31:29;3.50;;;1.48;;
15151;SDS011;7676;50.900;6.234;2023-08-21T16:46:31;3.30;;;1.65;;
15151;SDS011;7676;50.900;6.234;2023-08-21T17:01:35;3.85;;;1.60;;
15151;SDS011;7676;50.900;6.234;2023-08-21T17:16:38;2.92;;;1.25;;
15151;SDS011;7676;50.900;6.234;2023-08-21T17:31:44;5.13;;;1.98;;
15151;SDS011;7676;50.900;6.234;2023-08-21T17:46:46;2.85;;;1.45;;
15151;SDS011;7676;50.900;6.234;2023-08-21T18:01:49;2.88;;;1.77;;
15151;SDS011;7676;50.900;6.234;2023-08-21T18:16:55;3.47;;;1.50;;
15151;SDS011;7676;50.900;6.234;2023-08-21T18:32:03;3.33;;;1.77;;
15151;SDS011;7676;50.900;6.234;2023-08-21T18:47:06;3.13;;;1.75;;
15151;SDS011;7676;50.900;6.234;2023-08-21T19:02:09;2.50;;;1.90;;
15151;SDS011;7676;50.900;6.234;2023-08-21T19:17:11;4.83;;;2.60;;
15151;SDS011;7676;50.900;6.234;2023-08-21T19:32:14;5.67;;;2.80;;
15151;SDS011;7676;50.900;6.234;2023-08-21T19:47:17;4.90;;;2.72;;
15151;SDS011;7676;50.900;6.234;2023-08-21T20:02:20;5.40;;;3.00;;
15151;SDS011;7676;50.900;6.234;2023-08-21T20:17:23;2.50;;;2.10;;
15151;SDS011;7676;50.900;6.234;2023-08-21T20:32:26;6.10;;;2.50;;
15151;SDS011;7676;50.900;6.234;2023-08-21T20:47:29;3.77;;;2.40;;
15151;SDS011;7676;50.900;6.234;2023-08-21T21:02:36;4.00;;;2.00;;
15151;SDS011;7676;50.900;6.234;2023-08-21T21:17:39;4.07;;;2.60;;
15151;SDS011;7676;50.900;6.234;2023-08-21T21:32:42;4.80;;;2.10;;
15151;SDS011;7676;50.900;6.234;2023-08-21T21:47:45;3.03;;;2.60;;
15151;SDS011;7676;50.900;6.234;2023-08-21T22:02:48;2.10;;;1.90;;
15151;SDS011;7676;50.900;6.234;2023-08-21T22:17:51;4.23;;;2.50;;
15151;SDS011;7676;50.900;6.234;2023-08-21T22:32:54;2.80;;;2.27;;
15151;SDS011;7676;50.900;6.234;2023-08-21T22:47:57;3.33;;;2.60;;
15151;SDS011;7676;50.900;6.234;2023-08-21T23:02:59;4.87;;;2.60;;
15151;SDS011;7676;50.900;6.234;2023-08-21T23:18:04;2.67;;;2.47;;
15151;SDS011;7676;50.900;6.234;2023-08-21T23:33:07;3.57;;;2.73;;
15151;SDS011;7676;50.900;6.234;2023-08-21T23:48:10;3.87;;;2.40;;
